createdAt,value
2018-03-11T00:01:04.090Z,24.13
2018-03-11T00:03:34.872Z,10.53
2018-03-11T00:06:04.656Z,16.53
2018-03-11T00:08:35.375Z,20.42
2018-03-11T00:11:05.114Z,23.27
2018-03-11T00:13:35.199Z,18.43
2018-03-11T00:16:05.847Z,18.55
2018-03-11T00:18:35.771Z,16.10
2018-03-11T00:21:06.067Z,15.05
2018-03-11T00:23:36.303Z,15.53
2018-03-11T00:26:06.583Z,17.62
2018-03-11T00:28:36.838Z,24.50
2018-03-11T00:31:07.210Z,20.92
2018-03-11T00:33:38.281Z,31.90
2018-03-11T00:36:08.801Z,21.23
2018-03-11T00:38:39.418Z,20.67
2018-03-11T00:41:09.152Z,19.50
2018-03-11T00:43:40.183Z,27.80
2018-03-11T00:46:10.794Z,17.33
2018-03-11T00:48:40.502Z,15.17
2018-03-11T00:51:10.218Z,21.20
2018-03-11T00:53:39.940Z,18.07
2018-03-11T00:56:09.999Z,21.57
2018-03-11T00:58:40.939Z,12.57
2018-03-11T01:01:10.602Z,16.30
2018-03-11T01:03:40.694Z,21.57
2018-03-11T01:06:13.587Z,19.85
2018-03-11T01:08:44.058Z,17.73
2018-03-11T01:11:13.770Z,21.10
2018-03-11T01:13:43.449Z,16.70
2018-03-11T01:16:13.210Z,22.83
2018-03-11T01:18:42.927Z,21.33
2018-03-11T01:21:13.526Z,27.80
2018-03-11T01:23:44.207Z,15.23
2018-03-11T01:26:13.931Z,21.27
2018-03-11T01:28:43.834Z,15.68
2018-03-11T01:31:14.828Z,17.90
2018-03-11T01:33:44.683Z,20.43
2018-03-11T01:36:15.563Z,22.93
2018-03-11T01:38:46.011Z,19.60
2018-03-11T01:41:16.616Z,28.93
2018-03-11T01:43:48.071Z,22.00
2018-03-11T01:46:19.703Z,16.20
2018-03-11T01:48:49.504Z,22.03
2018-03-11T01:51:19.304Z,18.83
2018-03-11T01:53:49.492Z,20.65
2018-03-11T01:56:19.166Z,20.70
2018-03-11T01:58:48.881Z,24.27
2018-03-11T02:01:19.126Z,17.73
2018-03-11T02:03:48.971Z,19.47
2018-03-11T02:06:18.671Z,21.23
2018-03-11T02:08:50.464Z,29.70
2018-03-11T02:11:20.199Z,25.63
2018-03-11T02:13:50.718Z,25.30
2018-03-11T02:16:20.415Z,28.33
2018-03-11T04:50:56.595Z,19.27
2018-03-11T04:53:28.011Z,12.47
2018-03-11T04:55:59.358Z,16.37
2018-03-11T04:58:29.064Z,19.53
2018-03-11T05:00:58.782Z,11.90
2018-03-11T05:03:28.539Z,17.57
2018-03-11T05:05:58.294Z,15.20
2018-03-11T05:08:27.991Z,18.90
2018-03-11T05:10:58.125Z,17.53
2018-03-11T05:13:27.860Z,13.27
2018-03-11T05:15:58.733Z,12.47
2018-03-11T05:18:28.461Z,20.53
2018-03-11T05:20:58.246Z,18.93
2018-03-11T05:23:29.435Z,22.10
2018-03-11T05:25:59.184Z,14.73
2018-03-11T05:28:30.478Z,23.10
2018-03-11T05:31:00.247Z,19.80
2018-03-11T05:33:30.738Z,18.63
2018-03-11T05:36:00.522Z,25.53
2018-03-11T05:38:30.248Z,16.23
2018-03-11T05:41:00.214Z,16.10
2018-03-11T05:43:29.938Z,15.17
2018-03-11T05:45:59.675Z,14.20
2018-03-11T05:48:29.434Z,12.40
2018-03-11T05:51:00.031Z,22.57
2018-03-11T05:53:29.765Z,22.47
2018-03-11T05:55:59.543Z,11.13
2018-03-11T05:58:29.264Z,10.13
2018-03-11T06:00:59.031Z,9.73
2018-03-11T06:03:28.823Z,16.27
2018-03-11T06:05:59.366Z,11.27
2018-03-11T06:08:29.903Z,14.13
2018-03-11T06:10:59.661Z,15.30
2018-03-11T06:13:29.342Z,18.57
2018-03-11T06:15:59.057Z,15.27
2018-03-11T06:18:28.858Z,16.73
2018-03-11T06:20:58.627Z,14.23
2018-03-11T06:23:30.102Z,16.03
2018-03-11T06:25:59.839Z,12.60
2018-03-11T06:28:29.567Z,18.97
2018-03-11T06:30:59.274Z,15.07
2018-03-11T06:33:28.971Z,10.67
2018-03-11T06:35:58.727Z,14.23
2018-03-11T06:38:29.256Z,11.13
2018-03-11T06:40:59.710Z,12.93
2018-03-11T06:43:29.411Z,13.30
2018-03-11T06:46:00.279Z,17.33
2018-03-11T06:48:29.987Z,12.03
2018-03-11T06:50:59.703Z,12.13
2018-03-11T06:53:30.510Z,9.30
2018-03-11T06:56:00.254Z,14.70
2018-03-11T06:58:29.994Z,11.90
2018-03-11T07:00:59.700Z,15.87
2018-03-11T07:03:29.442Z,14.33
2018-03-11T07:06:00.144Z,15.57
2018-03-11T07:08:29.916Z,9.43
2018-03-11T07:10:59.650Z,12.43
2018-03-11T07:13:29.387Z,13.57
2018-03-11T07:15:59.868Z,10.67
2018-03-11T07:18:29.834Z,10.27
2018-03-11T07:21:00.307Z,10.27
2018-03-11T07:23:30.040Z,12.40
2018-03-11T07:25:59.731Z,11.50
2018-03-11T07:28:29.473Z,8.03
2018-03-11T07:30:59.200Z,17.13
2018-03-11T07:33:29.667Z,26.53
2018-03-11T07:35:59.424Z,16.20
2018-03-11T07:38:29.284Z,14.67
2018-03-11T07:40:59.006Z,8.23
2018-03-11T07:43:28.666Z,11.73
2018-03-11T07:45:59.362Z,13.23
2018-03-11T07:48:29.073Z,15.23
2018-03-11T07:50:58.926Z,10.33
2018-03-11T07:53:29.398Z,10.87
2018-03-11T07:55:59.110Z,20.33
2018-03-11T07:58:28.840Z,21.27
2018-03-11T08:00:58.528Z,17.07
2018-03-11T08:03:29.159Z,11.27
2018-03-11T08:05:58.952Z,12.83
2018-03-11T08:08:28.666Z,14.90
2018-03-11T08:10:58.375Z,17.40
2018-03-11T08:13:28.115Z,21.13
2018-03-11T08:15:57.847Z,9.40
2018-03-11T08:18:27.639Z,13.50
2018-03-11T08:20:57.467Z,15.80
2018-03-11T08:23:27.200Z,12.67
2018-03-11T08:25:58.028Z,13.70
2018-03-11T08:28:27.785Z,10.80
2018-03-11T08:30:58.391Z,12.97
2018-03-11T08:33:28.913Z,9.40
2018-03-11T08:35:59.452Z,12.73
2018-03-11T08:38:30.709Z,13.20
2018-03-11T08:41:00.448Z,17.43
2018-03-11T08:43:30.202Z,14.07
2018-03-11T08:46:00.702Z,12.60
2018-03-11T08:48:30.425Z,10.33
2018-03-11T08:51:00.328Z,12.80
2018-03-11T08:53:31.086Z,12.70
2018-03-11T08:56:01.519Z,17.30
2018-03-11T08:58:32.028Z,17.80
2018-03-11T09:01:01.798Z,11.07
2018-03-11T09:03:31.627Z,18.50
2018-03-11T09:06:02.614Z,13.70
2018-03-11T09:08:33.104Z,9.90
2018-03-11T09:11:02.878Z,9.97
2018-03-11T09:13:32.635Z,18.87
2018-03-11T09:16:03.229Z,24.00
2018-03-11T09:18:32.967Z,10.97
2018-03-11T09:21:02.656Z,14.47
2018-03-11T09:23:32.560Z,14.60
2018-03-11T09:26:02.352Z,13.20
2018-03-11T09:28:32.035Z,16.60
2018-03-11T09:31:01.744Z,19.70
2018-03-11T09:33:31.518Z,9.80
2018-03-11T09:36:01.236Z,13.23
2018-03-11T09:38:31.284Z,10.63
2018-03-11T09:41:01.015Z,11.23
2018-03-11T09:43:31.118Z,14.63
2018-03-11T09:46:01.641Z,15.37
2018-03-11T09:48:31.343Z,14.37
2018-03-11T09:51:01.127Z,16.20
2018-03-11T09:53:30.873Z,15.97
2018-03-11T09:56:00.618Z,11.43
2018-03-11T09:58:30.355Z,15.43
2018-03-11T10:01:00.101Z,8.50
2018-03-11T10:03:29.842Z,17.47
2018-03-11T10:06:00.362Z,11.33
2018-03-11T10:08:30.866Z,11.53
2018-03-11T10:11:01.387Z,25.00
2018-03-11T10:13:31.094Z,27.10
2018-03-11T10:16:00.811Z,11.27
2018-03-11T10:18:31.383Z,14.10
2018-03-11T10:21:01.102Z,14.03
2018-03-11T10:23:30.858Z,9.73
2018-03-11T10:26:00.589Z,19.23
2018-03-11T10:28:32.046Z,11.10
2018-03-11T10:31:02.813Z,12.30
2018-03-11T10:33:34.709Z,13.60
2018-03-11T10:36:04.514Z,15.00
2018-03-11T10:38:34.461Z,29.27
2018-03-11T10:41:04.996Z,12.73
2018-03-11T10:43:35.538Z,18.93
2018-03-11T10:46:06.146Z,10.50
2018-03-11T10:48:36.730Z,11.90
2018-03-11T10:51:07.467Z,21.20
2018-03-11T10:53:37.255Z,16.20
2018-03-11T10:56:08.286Z,15.20
2018-03-11T10:58:39.053Z,16.30
2018-03-11T11:01:14.982Z,14.60
2018-03-11T11:03:49.998Z,15.05
2018-03-11T11:06:20.454Z,8.80
2018-03-11T11:08:50.264Z,17.37
2018-03-11T11:11:19.990Z,23.53
2018-03-11T11:13:50.326Z,10.52
2018-03-11T11:16:20.046Z,16.43
2018-03-11T11:18:50.061Z,15.57
2018-03-11T11:21:19.805Z,14.68
2018-03-11T11:23:50.328Z,22.17
2018-03-11T11:26:21.694Z,13.03
2018-03-11T11:28:51.543Z,25.87
2018-03-11T11:31:21.314Z,20.30
2018-03-11T11:33:51.798Z,13.73
2018-03-11T11:36:21.822Z,14.10
2018-03-11T11:38:51.531Z,22.47
2018-03-11T11:41:21.275Z,19.27
2018-03-11T11:43:51.812Z,16.67
2018-03-11T11:46:21.563Z,20.20
2018-03-11T11:48:51.309Z,15.43
2018-03-11T11:51:21.540Z,13.83
2018-03-11T11:53:52.049Z,16.43
2018-03-11T11:56:21.865Z,19.30
2018-03-11T11:58:51.627Z,17.53
2018-03-11T12:01:22.322Z,18.33
2018-03-11T12:03:52.807Z,15.27
2018-03-11T12:06:23.583Z,22.23
2018-03-11T12:08:54.034Z,25.80
2018-03-11T12:11:23.753Z,24.10
2018-03-11T12:13:53.479Z,18.80
2018-03-11T12:16:25.920Z,18.33
2018-03-11T12:18:56.517Z,17.92
2018-03-11T12:21:26.222Z,22.77
2018-03-11T12:23:56.875Z,12.60
2018-03-11T12:26:26.557Z,28.90
2018-03-11T12:28:56.336Z,19.20
2018-03-11T12:31:26.118Z,20.23
2018-03-11T12:33:56.647Z,23.58
2018-03-11T12:36:27.140Z,20.90
2018-03-11T12:38:56.881Z,14.67
2018-03-11T12:41:27.586Z,29.70
2018-03-11T12:43:57.305Z,17.80
2018-03-11T12:46:27.067Z,18.67
2018-03-11T12:48:56.797Z,15.43
2018-03-11T12:51:26.536Z,15.77
2018-03-11T12:53:56.394Z,16.10
2018-03-11T12:56:26.142Z,20.23
2018-03-11T12:58:55.878Z,16.83
2018-03-11T13:01:25.603Z,16.37
2018-03-11T13:03:56.415Z,10.85
2018-03-11T13:06:26.173Z,16.00
2018-03-11T13:08:55.949Z,23.63
2018-03-11T13:11:25.978Z,14.10
2018-03-11T13:13:56.496Z,21.60
2018-03-11T13:16:26.470Z,17.43
2018-03-11T13:18:56.196Z,18.13
2018-03-11T13:21:26.294Z,15.27
2018-03-11T13:23:56.307Z,17.90
2018-03-11T13:26:26.008Z,13.20
2018-03-11T13:28:56.193Z,17.45
2018-03-11T13:31:26.388Z,17.55
2018-03-11T13:34:07.872Z,21.48
2018-03-11T13:36:38.098Z,18.80
2018-03-11T13:39:18.815Z,27.00
2018-03-11T13:41:48.642Z,19.80
2018-03-11T13:44:18.728Z,12.43
2018-03-11T13:47:01.116Z,14.80
2018-03-11T13:49:30.835Z,29.90
2018-03-11T13:52:12.452Z,26.17
2018-03-11T13:54:42.238Z,20.63
2018-03-11T14:00:28.436Z,17.83
2018-03-11T14:02:58.511Z,26.03
2018-03-11T14:05:28.306Z,26.37
2018-03-11T14:07:58.044Z,19.43
2018-03-11T14:10:28.020Z,13.40
2018-03-11T14:12:57.822Z,16.73
2018-03-11T14:15:28.389Z,27.93
2018-03-11T14:17:59.067Z,16.35
2018-03-11T14:20:30.227Z,17.53
2018-03-11T14:23:01.674Z,16.63
2018-03-11T14:25:34.191Z,16.07
2018-03-11T14:28:04.006Z,22.33
2018-03-11T14:30:33.846Z,18.30
2018-03-11T14:33:03.637Z,18.97
2018-03-11T14:35:33.621Z,21.10
2018-03-11T14:38:03.481Z,17.20
2018-03-11T14:40:33.269Z,18.87
2018-03-11T14:43:03.086Z,16.20
2018-03-11T14:45:33.185Z,31.43
2018-03-11T14:48:04.769Z,34.92
2018-03-11T14:50:34.505Z,15.47
2018-03-11T14:53:04.289Z,21.80
2018-03-11T14:55:34.293Z,23.17
2018-03-11T14:58:05.229Z,19.35
2018-03-11T15:00:35.278Z,21.40
2018-03-11T15:03:05.057Z,23.30
2018-03-11T15:05:35.971Z,18.37
2018-03-11T15:08:06.489Z,19.53
2018-03-11T15:10:37.443Z,20.77
2018-03-11T15:13:09.164Z,11.77
2018-03-11T15:15:38.965Z,20.83
2018-03-11T15:18:08.717Z,21.77
2018-03-11T15:20:39.286Z,20.23
2018-03-11T15:23:09.044Z,19.23
2018-03-11T15:25:38.973Z,20.65
2018-03-11T15:28:09.861Z,22.53
2018-03-11T15:30:39.681Z,37.93
2018-03-11T15:33:09.929Z,22.90
2018-03-11T15:35:40.425Z,20.37
2018-03-11T15:38:10.233Z,22.62
2018-03-11T15:40:40.057Z,21.00
2018-03-11T15:43:10.105Z,17.03
2018-03-11T15:45:40.642Z,23.70
2018-03-11T15:48:11.160Z,22.63
2018-03-11T15:50:42.074Z,20.43
2018-03-11T15:53:11.890Z,15.67
2018-03-11T15:55:41.746Z,31.33
2018-03-11T15:58:11.571Z,30.27
2018-03-11T16:00:41.344Z,25.00
2018-03-11T16:03:11.883Z,21.87
2018-03-11T16:05:42.341Z,23.77
2018-03-11T16:08:12.112Z,24.17
2018-03-11T16:10:42.657Z,29.77
2018-03-11T16:13:14.516Z,36.80
2018-03-11T16:15:44.283Z,33.45
2018-03-11T16:18:14.603Z,33.80
2018-03-11T16:20:44.446Z,25.63
2018-03-11T16:23:15.622Z,41.37
2018-03-11T16:25:45.327Z,32.72
2018-03-11T16:28:15.055Z,26.27
2018-03-11T16:30:45.783Z,32.77
2018-03-11T16:33:15.516Z,23.50
2018-03-11T16:35:45.334Z,34.20
2018-03-11T16:38:15.131Z,33.53
2018-03-11T16:40:45.411Z,39.13
2018-03-11T16:43:15.166Z,27.50
2018-03-11T16:45:44.916Z,35.13
2018-03-11T16:48:14.675Z,26.47
2018-03-11T16:50:45.588Z,30.83
2018-03-11T16:53:16.080Z,37.40
2018-03-11T16:55:45.836Z,23.60
2018-03-11T16:58:15.662Z,27.50
2018-03-11T17:00:45.973Z,27.87
2018-03-11T17:03:17.568Z,26.40
2018-03-11T17:05:47.311Z,26.52
2018-03-11T17:08:17.815Z,28.60
2018-03-11T17:10:48.555Z,37.73
2018-03-11T17:13:19.050Z,30.87
2018-03-11T17:15:48.966Z,35.05
2018-03-11T17:18:18.767Z,29.00
2018-03-11T17:20:48.906Z,26.67
2018-03-11T17:23:19.368Z,54.37
2018-03-11T17:25:50.942Z,28.93
2018-03-11T17:28:21.440Z,30.73
2018-03-11T17:30:51.138Z,31.33
2018-03-11T17:33:20.851Z,29.80
2018-03-11T17:35:50.567Z,28.53
2018-03-11T17:38:20.314Z,34.40
2018-03-11T17:40:50.052Z,34.63
2018-03-11T17:43:19.955Z,31.85
2018-03-11T17:45:49.719Z,22.83
2018-03-11T17:48:20.920Z,28.77
2018-03-11T17:50:50.698Z,27.47
2018-03-11T17:53:21.156Z,32.40
2018-03-11T17:55:50.922Z,29.10
2018-03-11T17:58:20.700Z,26.07
2018-03-11T18:00:52.181Z,30.62
2018-03-11T18:03:21.928Z,24.07
2018-03-11T18:05:52.629Z,38.80
2018-03-11T18:08:23.774Z,37.50
2018-03-11T18:10:55.295Z,31.08
2018-03-11T18:13:25.451Z,30.57
2018-03-11T18:15:55.947Z,29.73
2018-03-11T18:18:25.647Z,28.73
2018-03-11T18:20:55.459Z,34.93
2018-03-11T18:23:25.172Z,27.27
2018-03-11T18:25:54.938Z,31.73
2018-03-11T18:28:25.615Z,26.50
2018-03-11T18:30:55.387Z,28.73
2018-03-11T18:33:28.123Z,29.57
2018-03-11T18:35:57.832Z,38.53
2018-03-11T18:38:27.887Z,33.43
2018-03-11T18:40:58.502Z,34.57
2018-03-11T18:43:29.583Z,30.97
2018-03-11T18:45:59.306Z,28.43
2018-03-11T18:48:29.030Z,29.37
2018-03-11T18:50:59.200Z,25.80
2018-03-11T18:53:28.922Z,39.50
2018-03-11T18:55:58.622Z,26.27
2018-03-11T18:58:28.330Z,27.20
2018-03-11T19:00:59.222Z,30.05
2018-03-11T19:03:29.040Z,27.87
2018-03-11T19:05:58.817Z,19.67
2018-03-11T19:08:28.528Z,26.43
2018-03-11T19:10:58.238Z,39.30
2018-03-11T19:13:28.274Z,25.60
2018-03-11T19:15:58.068Z,22.77
2018-03-11T19:18:28.785Z,20.95
2018-03-11T19:20:58.506Z,31.37
2018-03-11T19:23:28.677Z,44.97
2018-03-11T19:25:58.542Z,33.45
2018-03-11T19:28:28.715Z,26.70
2018-03-11T19:30:58.882Z,26.35
2018-03-11T19:33:29.831Z,33.03
2018-03-11T19:36:00.007Z,36.50
2018-03-11T19:38:30.475Z,30.50
2018-03-11T19:41:00.310Z,32.17
2018-03-11T19:43:30.248Z,36.55
2018-03-11T19:46:00.458Z,31.77
2018-03-11T19:48:30.936Z,38.60
2018-03-11T19:51:00.858Z,27.70
2018-03-11T19:53:31.766Z,38.30
2018-03-11T19:56:02.389Z,29.30
2018-03-11T19:58:32.072Z,33.77
2018-03-11T20:01:01.800Z,32.50
2018-03-11T20:03:32.200Z,21.60
2018-03-11T20:06:01.988Z,30.12
2018-03-11T20:08:32.086Z,22.03
2018-03-11T20:11:03.058Z,26.45
2018-03-11T20:13:32.770Z,23.20
2018-03-11T20:16:03.423Z,27.45
2018-03-11T20:18:33.166Z,27.13
2018-03-11T20:21:03.962Z,22.75
2018-03-11T20:23:33.659Z,28.20
2018-03-11T20:26:03.874Z,23.60
2018-03-11T20:28:33.623Z,31.47
2018-03-11T20:31:03.704Z,30.17
2018-03-11T20:33:34.750Z,25.67
2018-03-11T20:36:04.555Z,28.73
2018-03-11T20:38:34.306Z,30.27
2018-03-11T20:41:05.348Z,30.70
2018-03-11T20:43:35.787Z,25.87
2018-03-11T20:46:06.353Z,40.27
2018-03-11T20:48:36.699Z,23.87
2018-03-11T20:51:06.536Z,28.83
2018-03-11T20:53:37.844Z,26.63
2018-03-11T20:56:08.471Z,28.60
2018-03-11T20:58:38.155Z,27.10
2018-03-11T21:01:07.932Z,29.07
2018-03-11T21:03:38.407Z,29.10
2018-03-11T21:06:08.639Z,23.83
2018-03-11T21:08:38.878Z,30.63
2018-03-11T21:11:08.594Z,31.53
2018-03-11T21:13:38.324Z,25.17
2018-03-11T21:16:08.373Z,16.53
2018-03-11T21:18:38.123Z,27.63
2018-03-11T21:21:07.920Z,23.47
2018-03-11T21:23:39.367Z,23.00
2018-03-11T21:26:09.107Z,20.53
2018-03-11T21:28:40.091Z,23.65
2018-03-11T21:31:09.826Z,31.63
2018-03-11T21:33:39.530Z,31.17
2018-03-11T21:36:09.266Z,23.43
2018-03-11T21:38:39.457Z,20.63
2018-03-11T21:41:09.621Z,28.53
2018-03-11T21:43:40.032Z,24.50
2018-03-11T21:46:10.246Z,19.65
2018-03-11T21:48:41.196Z,31.33
2018-03-11T21:51:11.395Z,27.20
2018-03-11T21:53:41.744Z,41.97
2018-03-11T21:56:11.540Z,21.53
2018-03-11T21:58:41.269Z,33.37
2018-03-11T22:01:12.147Z,22.27
2018-03-11T22:03:42.741Z,31.27
2018-03-11T22:06:12.490Z,22.27
2018-03-11T22:08:44.095Z,38.33
2018-03-11T22:11:13.783Z,29.90
2018-03-11T22:13:44.330Z,23.93
2018-03-11T22:16:14.024Z,26.83
2018-03-11T22:18:43.744Z,21.00
2018-03-11T22:21:13.727Z,22.47
2018-03-11T22:23:43.607Z,21.33
2018-03-11T22:26:13.328Z,26.50
2018-03-11T22:28:44.817Z,26.33
2018-03-11T22:31:14.778Z,22.93
2018-03-11T22:33:44.577Z,31.27
2018-03-11T22:36:15.934Z,26.67
2018-03-11T22:38:45.635Z,19.30
2018-03-11T22:41:15.419Z,24.92
2018-03-11T22:43:46.163Z,20.35
2018-03-11T22:46:15.934Z,32.93
2018-03-11T22:48:46.799Z,21.63
2018-03-11T22:51:16.503Z,26.27
2018-03-11T22:53:48.068Z,24.87
2018-03-11T22:56:17.752Z,26.63
2018-03-11T22:58:47.893Z,25.44
2018-03-11T23:01:17.686Z,26.87
2018-03-11T23:03:47.398Z,23.52
2018-03-11T23:06:18.635Z,34.78
2018-03-11T23:08:48.406Z,23.10
2018-03-11T23:11:18.108Z,20.93
2018-03-11T23:13:48.026Z,35.10
2018-03-11T23:16:19.790Z,18.30
2018-03-11T23:19:00.679Z,22.35
2018-03-11T23:21:31.179Z,31.60
2018-03-11T23:24:00.873Z,21.73
2018-03-11T23:26:30.631Z,29.40
2018-03-11T23:29:01.136Z,21.20
2018-03-11T23:31:30.915Z,40.60
2018-03-11T23:34:00.594Z,23.50
2018-03-11T23:36:30.594Z,19.47
2018-03-11T23:39:01.463Z,27.50
2018-03-11T23:41:31.249Z,20.03
2018-03-11T23:44:01.015Z,44.15
2018-03-11T23:46:30.929Z,38.57
2018-03-11T23:49:01.167Z,23.92
2018-03-11T23:51:32.059Z,22.42
2018-03-11T23:54:01.758Z,20.93
2018-03-11T23:56:32.558Z,23.70
2018-03-11T23:59:03.171Z,19.87
